createdAt,value
2024-03-08T00:00:52.498Z,10.50
2024-03-08T00:03:20.570Z,10.50
2024-03-08T00:05:48.656Z,9.80
2024-03-08T00:08:16.753Z,10.27
2024-03-08T00:10:44.891Z,10.80
2024-03-08T00:13:14.224Z,10.13
2024-03-08T00:15:42.379Z,10.17
2024-03-08T00:18:11.470Z,10.43
2024-03-08T00:20:39.737Z,10.23
2024-03-08T00:23:07.671Z,9.50
2024-03-08T00:25:36.862Z,10.27
2024-03-08T00:28:05.833Z,10.83
2024-03-08T00:30:35.574Z,10.87
2024-03-08T00:33:03.820Z,9.90
2024-03-08T00:35:32.379Z,10.73
2024-03-08T00:37:59.277Z,10.63
2024-03-08T00:40:27.173Z,9.77
2024-03-08T00:42:54.442Z,10.73
2024-03-08T00:45:23.257Z,10.17
2024-03-08T00:47:52.602Z,10.73
2024-03-08T00:50:20.513Z,10.43
2024-03-08T00:52:48.598Z,10.47
2024-03-08T00:55:16.551Z,10.57
2024-03-08T00:57:44.414Z,9.90
2024-03-08T01:00:13.993Z,10.53
2024-03-08T01:02:42.207Z,10.93
2024-03-08T01:05:11.793Z,10.80
2024-03-08T01:07:39.694Z,10.93
2024-03-08T01:10:10.958Z,11.20
2024-03-08T01:12:39.099Z,10.80
2024-03-08T01:15:08.311Z,10.67
2024-03-08T01:17:36.458Z,10.77
2024-03-08T01:20:04.698Z,10.77
2024-03-08T01:22:33.957Z,10.63
2024-03-08T01:25:01.820Z,11.50
2024-03-08T01:27:29.666Z,10.57
2024-03-08T01:29:57.616Z,11.43
2024-03-08T01:32:25.497Z,10.07
2024-03-08T01:34:53.348Z,10.67
2024-03-08T01:37:21.226Z,11.30
2024-03-08T01:39:50.462Z,11.23
2024-03-08T01:42:18.756Z,11.73
2024-03-08T01:44:46.830Z,11.63
2024-03-08T01:47:14.806Z,10.43
2024-03-08T01:49:43.060Z,10.50
2024-03-08T01:52:11.128Z,10.80
2024-03-08T01:54:39.409Z,10.27
2024-03-08T01:57:08.986Z,10.83
2024-03-08T01:59:37.305Z,10.77
2024-03-08T02:02:09.945Z,10.50
2024-03-08T02:04:39.991Z,11.10
2024-03-08T02:07:11.150Z,10.93
2024-03-08T02:09:40.321Z,10.20
2024-03-08T02:12:10.244Z,11.03
2024-03-08T02:14:41.271Z,10.83
2024-03-08T02:17:09.492Z,12.17
2024-03-08T02:19:37.617Z,11.53
2024-03-08T02:22:08.078Z,10.30
2024-03-08T02:24:36.012Z,11.47
2024-03-08T02:27:04.083Z,10.73
2024-03-08T02:29:33.415Z,11.80
2024-03-08T02:32:01.269Z,10.80
2024-03-08T02:34:29.346Z,10.73
2024-03-08T02:36:58.049Z,10.97
2024-03-08T02:39:28.787Z,11.53
2024-03-08T02:41:57.275Z,10.70
2024-03-08T02:44:25.189Z,10.90
2024-03-08T02:46:56.036Z,11.10
2024-03-08T02:49:24.001Z,11.50
2024-03-08T02:51:52.060Z,11.50
2024-03-08T02:54:20.357Z,11.10
2024-03-08T02:56:51.235Z,11.10
2024-03-08T02:59:19.880Z,11.10
2024-03-08T03:01:47.805Z,11.37
2024-03-08T03:04:15.828Z,10.50
2024-03-08T03:06:43.674Z,11.67
2024-03-08T03:09:12.084Z,10.43
2024-03-08T03:11:40.087Z,10.83
2024-03-08T03:14:10.153Z,11.33
2024-03-08T03:16:38.012Z,12.07
2024-03-08T03:19:06.442Z,10.77
2024-03-08T03:21:36.846Z,11.37
2024-03-08T03:24:05.410Z,12.67
2024-03-08T03:26:33.378Z,12.03
2024-03-08T03:29:01.757Z,10.90
2024-03-08T03:31:31.297Z,12.03
2024-03-08T03:34:02.816Z,11.53
2024-03-08T03:36:30.939Z,11.73
2024-03-08T03:39:08.090Z,12.10
2024-03-08T03:41:36.056Z,11.23
2024-03-08T03:44:03.988Z,12.33
2024-03-08T03:46:33.248Z,11.43
2024-03-08T03:49:01.123Z,11.97
2024-03-08T03:51:30.299Z,11.47
2024-03-08T03:53:58.564Z,11.57
2024-03-08T03:56:28.587Z,12.40
2024-03-08T03:58:56.485Z,11.90
2024-03-08T04:01:25.079Z,12.97
2024-03-08T04:03:54.464Z,11.90
2024-03-08T04:06:23.611Z,12.33
2024-03-08T04:08:51.700Z,12.73
2024-03-08T04:11:19.693Z,11.80
2024-03-08T04:13:47.673Z,11.90
2024-03-08T04:16:15.716Z,12.17
2024-03-08T04:18:44.366Z,12.13
2024-03-08T04:21:13.782Z,12.33
2024-03-08T04:23:41.925Z,12.50
2024-03-08T04:26:10.088Z,12.03
2024-03-08T04:28:38.404Z,11.80
2024-03-08T04:31:06.336Z,12.00
2024-03-08T04:33:36.663Z,12.27
2024-03-08T04:36:05.398Z,12.93
2024-03-08T04:38:35.391Z,12.23
2024-03-08T04:41:03.358Z,12.37
2024-03-08T04:43:31.459Z,12.03
2024-03-08T04:45:59.599Z,13.23
2024-03-08T04:48:27.772Z,12.33
2024-03-08T04:50:56.728Z,11.73
2024-03-08T04:53:24.664Z,11.47
2024-03-08T04:55:53.874Z,12.20
2024-03-08T04:58:21.932Z,12.50
2024-03-08T05:00:49.873Z,12.70
2024-03-08T05:03:18.704Z,11.90
2024-03-08T05:05:46.620Z,12.37
2024-03-08T05:08:14.569Z,13.03
2024-03-08T05:10:42.490Z,12.07
2024-03-08T05:13:11.729Z,12.20
2024-03-08T05:15:40.275Z,11.90
2024-03-08T05:18:09.658Z,12.83
2024-03-08T05:20:38.295Z,12.80
2024-03-08T05:23:06.558Z,12.33
2024-03-08T05:25:34.444Z,11.50
2024-03-08T05:28:02.308Z,12.53
2024-03-08T05:30:32.926Z,12.43
2024-03-08T05:33:01.132Z,13.20
2024-03-08T05:35:29.127Z,13.33
2024-03-08T05:37:56.989Z,14.53
2024-03-08T05:40:25.194Z,14.40
2024-03-08T05:42:53.051Z,13.23
2024-03-08T05:45:21.027Z,14.23
2024-03-08T05:47:50.398Z,12.90
2024-03-08T05:50:18.578Z,13.07
2024-03-08T05:52:46.447Z,12.60
2024-03-08T05:55:15.353Z,12.70
2024-03-08T05:57:43.430Z,13.13
2024-03-08T06:00:12.821Z,12.33
2024-03-08T06:02:42.448Z,12.80
2024-03-08T06:05:12.996Z,12.97
2024-03-08T06:07:41.339Z,12.07
2024-03-08T06:10:12.120Z,11.93
2024-03-08T06:12:42.676Z,12.23
2024-03-08T06:15:15.472Z,12.47
2024-03-08T06:17:43.821Z,12.47
2024-03-08T06:20:14.712Z,13.27
2024-03-08T06:22:45.440Z,13.20
2024-03-08T06:25:15.039Z,11.90
2024-03-08T06:27:43.574Z,13.17
2024-03-08T06:30:13.075Z,13.50
2024-03-08T06:32:41.345Z,12.47
2024-03-08T06:35:11.565Z,12.97
2024-03-08T06:37:40.767Z,13.10
2024-03-08T06:40:14.626Z,12.93
2024-03-08T06:42:42.784Z,11.90
2024-03-08T06:45:11.528Z,13.10
2024-03-08T06:47:39.520Z,13.27
2024-03-08T06:50:09.269Z,11.97
2024-03-08T06:52:37.219Z,12.30
2024-03-08T06:55:07.434Z,11.87
2024-03-08T06:57:35.686Z,11.77
2024-03-08T07:00:03.686Z,11.63
2024-03-08T07:02:33.658Z,12.03
2024-03-08T07:05:02.651Z,12.23
2024-03-08T07:07:31.336Z,12.60
2024-03-08T07:09:59.235Z,12.50
2024-03-08T07:12:28.529Z,12.70
2024-03-08T07:14:56.766Z,12.67
2024-03-08T07:17:25.495Z,13.33
2024-03-08T07:19:55.140Z,12.80
2024-03-08T07:22:24.518Z,12.50
2024-03-08T07:25:05.982Z,12.57
2024-03-08T07:27:37.269Z,12.90
2024-03-08T07:30:09.150Z,12.53
2024-03-08T07:32:37.377Z,13.03
2024-03-08T07:35:06.090Z,12.43
2024-03-08T07:37:34.164Z,13.23
2024-03-08T07:40:02.165Z,13.17
2024-03-08T07:42:30.786Z,13.30
2024-03-08T07:45:00.989Z,13.13
2024-03-08T07:47:29.001Z,12.40
2024-03-08T07:49:57.874Z,12.80
2024-03-08T07:52:26.981Z,13.50
2024-03-08T07:54:55.906Z,12.53
2024-03-08T07:57:23.931Z,12.43
2024-03-08T07:59:52.093Z,13.27
2024-03-08T08:02:21.410Z,12.37
2024-03-08T08:04:49.364Z,12.83
2024-03-08T08:07:17.446Z,12.53
2024-03-08T08:09:45.358Z,12.83
2024-03-08T08:12:13.854Z,12.93
2024-03-08T08:14:42.269Z,11.93
2024-03-08T08:17:10.674Z,12.17
2024-03-08T08:19:40.259Z,12.70
2024-03-08T08:22:10.016Z,13.27
2024-03-08T08:24:38.795Z,11.90
2024-03-08T08:27:07.761Z,12.60
2024-03-08T08:29:36.563Z,12.50
2024-03-08T08:32:04.898Z,11.73
2024-03-08T08:34:32.920Z,12.23
2024-03-08T08:37:02.493Z,11.93
2024-03-08T08:39:30.546Z,12.40
2024-03-08T08:41:58.882Z,11.23
2024-03-08T08:44:27.020Z,11.10
2024-03-08T08:46:59.595Z,11.77
2024-03-08T08:49:31.746Z,10.10
2024-03-08T08:52:06.519Z,10.03
2024-03-08T08:54:41.145Z,10.43
2024-03-08T08:57:09.106Z,10.33
2024-03-08T08:59:37.799Z,10.90
2024-03-08T09:02:05.986Z,11.02
2024-03-08T09:04:34.237Z,11.27
2024-03-08T09:07:02.518Z,11.82
2024-03-08T09:09:30.688Z,11.23
2024-03-08T09:12:00.029Z,11.32
2024-03-08T09:14:28.007Z,9.68
2024-03-08T09:16:56.134Z,10.48
2024-03-08T09:19:26.934Z,11.00
2024-03-08T09:21:55.432Z,10.68
2024-03-08T09:24:23.358Z,10.18
2024-03-08T09:26:51.237Z,9.77
2024-03-08T09:29:20.478Z,10.20
2024-03-08T09:31:48.412Z,9.68
2024-03-08T09:34:20.581Z,10.32
2024-03-08T09:36:53.759Z,9.13
2024-03-08T09:39:23.510Z,9.73
2024-03-08T09:41:52.426Z,9.23
2024-03-08T09:44:21.770Z,9.60
2024-03-08T09:46:49.870Z,10.02
2024-03-08T09:49:18.207Z,10.20
2024-03-08T09:51:47.080Z,9.23
2024-03-08T09:54:22.926Z,8.82
2024-03-08T09:56:54.636Z,8.55
2024-03-08T09:59:45.253Z,8.70
2024-03-08T10:02:17.878Z,8.98
2024-03-08T10:04:47.683Z,8.85
2024-03-08T10:07:16.623Z,8.88
2024-03-08T10:09:50.426Z,8.25
2024-03-08T10:12:20.316Z,9.20
2024-03-08T10:14:49.581Z,8.65
2024-03-08T10:17:17.504Z,8.15
2024-03-08T10:19:52.908Z,8.10
2024-03-08T10:22:21.014Z,8.40
2024-03-08T10:24:49.826Z,8.85
2024-03-08T10:27:19.345Z,7.93
2024-03-08T10:29:52.692Z,8.13
2024-03-08T10:32:21.500Z,7.57
2024-03-08T10:34:51.165Z,6.78
2024-03-08T10:37:25.291Z,7.28
2024-03-08T10:40:11.130Z,7.50
2024-03-08T10:42:43.249Z,7.25
2024-03-08T10:45:22.671Z,6.47
2024-03-08T10:47:51.901Z,7.30
2024-03-08T10:50:22.506Z,7.60
2024-03-08T10:52:52.214Z,6.75
2024-03-08T10:55:21.380Z,7.05
2024-03-08T10:57:49.690Z,6.57
2024-03-08T11:00:26.933Z,7.20
2024-03-08T11:02:55.458Z,6.90
2024-03-08T11:05:36.290Z,5.90
2024-03-08T11:08:06.753Z,6.25
2024-03-08T11:10:34.767Z,6.95
2024-03-08T11:13:03.036Z,7.35
2024-03-08T11:15:33.030Z,8.68
2024-03-08T11:18:02.222Z,7.50
2024-03-08T11:20:33.394Z,6.80
2024-03-08T11:23:08.383Z,6.50
2024-03-08T11:25:42.692Z,6.53
2024-03-08T11:28:17.968Z,8.32
2024-03-08T11:31:27.746Z,7.75
2024-03-08T11:33:56.177Z,7.40
2024-03-08T11:36:25.415Z,7.43
2024-03-08T11:38:56.282Z,7.63
2024-03-08T11:41:25.947Z,8.23
2024-03-08T11:44:06.117Z,7.82
2024-03-08T11:46:36.717Z,7.65
2024-03-08T11:49:06.664Z,8.70
2024-03-08T11:51:34.937Z,7.70
2024-03-08T11:54:03.701Z,7.97
2024-03-08T11:56:33.097Z,8.60
2024-03-08T11:59:01.872Z,8.23
2024-03-08T12:01:29.867Z,8.95
2024-03-08T12:04:02.368Z,7.82
2024-03-08T12:06:41.036Z,8.38
2024-03-08T12:09:13.877Z,9.30
2024-03-08T12:11:42.148Z,9.20
2024-03-08T12:14:11.292Z,9.15
2024-03-08T12:16:39.452Z,9.63
2024-03-08T12:19:10.542Z,9.30
2024-03-08T12:21:38.775Z,9.68
2024-03-08T12:24:10.414Z,8.30
2024-03-08T12:26:39.546Z,8.57
2024-03-08T12:29:28.626Z,8.70
2024-03-08T12:31:59.410Z,8.98
2024-03-08T12:34:29.378Z,8.50
2024-03-08T12:36:57.411Z,8.43
2024-03-08T12:39:27.940Z,8.93
2024-03-08T12:41:58.013Z,8.25
2024-03-08T12:44:27.014Z,9.02
2024-03-08T12:46:55.547Z,8.20
2024-03-08T12:49:24.403Z,8.73
2024-03-08T12:51:54.557Z,9.38
2024-03-08T12:54:24.438Z,9.63
2024-03-08T12:56:54.504Z,9.05
2024-03-08T12:59:23.337Z,8.60
2024-03-08T13:01:52.500Z,9.68
2024-03-08T13:04:22.277Z,9.35
2024-03-08T13:06:54.371Z,9.32
2024-03-08T13:09:25.247Z,9.43
2024-03-08T13:11:55.136Z,9.70
2024-03-08T13:14:23.413Z,9.02
2024-03-08T13:16:52.770Z,8.80
2024-03-08T13:19:22.820Z,8.40
2024-03-08T13:21:51.119Z,9.10
2024-03-08T13:24:19.946Z,9.18
2024-03-08T13:26:50.972Z,8.43
2024-03-08T13:29:19.623Z,8.30
2024-03-08T13:31:52.689Z,8.88
2024-03-08T13:34:28.749Z,8.43
2024-03-08T13:37:01.150Z,8.55
2024-03-08T13:39:30.275Z,8.90
2024-03-08T13:41:59.592Z,9.90
2024-03-08T13:44:28.983Z,7.93
2024-03-08T13:46:59.161Z,8.52
2024-03-08T13:49:27.492Z,7.72
2024-03-08T13:51:56.036Z,7.25
2024-03-08T13:54:24.096Z,7.40
2024-03-08T13:56:55.154Z,7.55
2024-03-08T13:59:25.358Z,7.60
2024-03-08T14:01:53.323Z,7.15
2024-03-08T14:04:21.383Z,7.22
2024-03-08T14:06:50.263Z,6.95
2024-03-08T14:09:18.833Z,7.55
2024-03-08T14:11:46.890Z,8.13
2024-03-08T14:14:14.927Z,7.22
2024-03-08T14:16:44.415Z,7.75
2024-03-08T14:19:12.312Z,7.20
2024-03-08T14:21:40.661Z,7.10
2024-03-08T14:24:08.942Z,6.90
2024-03-08T14:26:39.497Z,7.10
2024-03-08T14:29:07.884Z,7.03
2024-03-08T14:31:36.980Z,6.18
2024-03-08T14:34:06.445Z,5.95
2024-03-08T14:36:34.416Z,6.43
2024-03-08T14:39:02.603Z,6.55
2024-03-08T14:41:30.939Z,6.40
2024-03-08T14:43:59.011Z,6.32
2024-03-08T14:46:27.746Z,6.32
2024-03-08T14:48:55.642Z,6.07
2024-03-08T14:51:27.208Z,5.90
2024-03-08T14:53:55.606Z,6.13
2024-03-08T14:56:23.926Z,5.65
2024-03-08T14:58:52.712Z,6.33
2024-03-08T15:01:23.457Z,6.43
2024-03-08T15:03:51.655Z,6.00
2024-03-08T15:06:22.080Z,5.67
2024-03-08T15:08:52.865Z,6.37
2024-03-08T15:11:26.094Z,5.73
2024-03-08T15:13:54.607Z,5.73
2024-03-08T15:16:24.905Z,6.37
2024-03-08T15:18:54.520Z,5.50
2024-03-08T15:21:23.628Z,6.43
2024-03-08T15:23:54.922Z,5.83
2024-03-08T15:26:22.871Z,7.00
2024-03-08T15:28:52.909Z,6.10
2024-03-08T15:31:22.520Z,6.43
2024-03-08T15:33:52.729Z,7.10
2024-03-08T15:36:22.237Z,6.53
2024-03-08T15:38:53.201Z,6.10
2024-03-08T15:41:22.826Z,7.10
2024-03-08T15:43:51.885Z,6.27
2024-03-08T15:46:23.472Z,6.43
2024-03-08T15:48:52.499Z,6.33
2024-03-08T15:51:21.168Z,6.77
2024-03-08T15:53:54.364Z,7.40
2024-03-08T15:56:24.778Z,7.03
2024-03-08T15:58:53.221Z,7.20
2024-03-08T16:01:23.589Z,7.30
2024-03-08T16:03:51.768Z,7.13
2024-03-08T16:06:22.347Z,7.40
2024-03-08T16:08:50.448Z,7.83
2024-03-08T16:11:19.773Z,7.70
2024-03-08T16:13:50.359Z,9.38
2024-03-08T16:16:19.025Z,8.63
2024-03-08T16:18:46.974Z,7.93
2024-03-08T16:21:15.519Z,7.50
2024-03-08T16:23:44.863Z,7.57
2024-03-08T16:26:14.245Z,8.00
2024-03-08T16:28:43.382Z,7.70
2024-03-08T16:31:15.739Z,7.73
2024-03-08T16:33:45.344Z,7.57
2024-03-08T16:36:14.665Z,7.27
2024-03-08T16:38:45.810Z,7.70
2024-03-08T16:41:14.616Z,7.50
2024-03-08T16:43:44.959Z,7.57
2024-03-08T16:46:14.550Z,8.30
2024-03-08T16:48:43.211Z,8.63
2024-03-08T16:51:12.134Z,7.63
2024-03-08T16:53:42.023Z,7.60
2024-03-08T16:56:13.471Z,7.93
2024-03-08T16:58:43.868Z,7.87
2024-03-08T17:01:12.111Z,7.37
2024-03-08T17:03:48.305Z,8.23
2024-03-08T17:06:25.130Z,7.43
2024-03-08T17:08:54.725Z,7.57
2024-03-08T17:11:23.274Z,8.20
2024-03-08T17:13:51.513Z,7.93
2024-03-08T17:16:25.206Z,8.13
2024-03-08T17:18:54.672Z,7.77
2024-03-08T17:21:22.728Z,8.50
2024-03-08T17:23:50.819Z,8.33
2024-03-08T17:26:19.619Z,8.23
2024-03-08T17:28:48.809Z,7.83
2024-03-08T17:31:16.858Z,8.13
2024-03-08T17:33:44.765Z,7.67
2024-03-08T17:36:16.932Z,8.13
2024-03-08T17:38:48.855Z,7.50
2024-03-08T17:41:23.136Z,7.30
2024-03-08T17:43:51.748Z,9.93
2024-03-08T17:46:20.388Z,10.97
2024-03-08T17:48:48.379Z,9.67
2024-03-08T17:51:17.655Z,8.97
2024-03-08T17:53:47.485Z,8.80
2024-03-08T17:56:16.316Z,8.83
2024-03-08T17:58:44.340Z,8.20
2024-03-08T18:01:15.603Z,8.57
2024-03-08T18:03:43.579Z,8.87
2024-03-08T18:06:11.480Z,9.87
2024-03-08T18:08:43.692Z,9.57
2024-03-08T18:11:11.712Z,8.73
2024-03-08T18:13:39.787Z,8.07
2024-03-08T18:16:08.883Z,8.50
2024-03-08T18:18:37.954Z,9.73
2024-03-08T18:21:07.086Z,11.17
2024-03-08T18:23:35.054Z,11.57
2024-03-08T18:26:04.559Z,13.00
2024-03-08T18:28:32.620Z,10.97
2024-03-08T18:31:01.437Z,11.40
2024-03-08T18:33:33.323Z,10.90
2024-03-08T18:36:01.315Z,9.20
2024-03-08T18:38:29.240Z,8.20
2024-03-08T18:40:58.737Z,7.80
2024-03-08T18:43:28.916Z,7.57
2024-03-08T18:45:58.485Z,7.87
2024-03-08T18:48:27.596Z,7.43
2024-03-08T18:50:55.641Z,7.17
2024-03-08T18:53:24.238Z,7.97
2024-03-08T18:55:52.733Z,8.10
2024-03-08T18:58:27.504Z,7.97
2024-03-08T19:01:06.469Z,7.43
2024-03-08T19:03:35.684Z,7.47
2024-03-08T19:06:04.168Z,7.33
2024-03-08T19:08:33.921Z,7.57
2024-03-08T19:11:02.208Z,7.83
2024-03-08T19:13:30.243Z,7.23
2024-03-08T19:15:58.276Z,7.53
2024-03-08T19:18:28.446Z,8.50
2024-03-08T19:20:57.513Z,9.43
2024-03-08T19:23:25.671Z,10.10
2024-03-08T19:25:53.750Z,10.27
2024-03-08T19:28:22.633Z,10.00
2024-03-08T19:30:53.567Z,9.10
2024-03-08T19:33:22.084Z,8.80
2024-03-08T19:35:51.619Z,9.43
2024-03-08T19:38:20.970Z,10.13
2024-03-08T19:40:49.880Z,10.00
2024-03-08T19:43:17.913Z,9.47
2024-03-08T19:45:46.449Z,8.53
2024-03-08T19:48:19.286Z,8.47
2024-03-08T19:50:47.914Z,7.90
2024-03-08T19:53:18.760Z,8.43
2024-03-08T19:55:50.519Z,8.03
2024-03-08T19:58:19.910Z,8.80
2024-03-08T20:00:48.796Z,9.57
2024-03-08T20:03:22.376Z,9.07
2024-03-08T20:05:52.525Z,8.63
2024-03-08T20:08:23.928Z,8.40
2024-03-08T20:10:53.123Z,8.23
2024-03-08T20:13:21.374Z,8.40
2024-03-08T20:15:54.810Z,8.30
2024-03-08T20:18:27.017Z,8.57
2024-03-08T20:20:55.360Z,8.33
2024-03-08T20:23:25.204Z,7.80
2024-03-08T20:25:53.604Z,7.93
2024-03-08T20:28:22.636Z,7.57
2024-03-08T20:30:50.524Z,7.37
2024-03-08T20:33:18.422Z,8.23
2024-03-08T20:35:47.262Z,8.53
2024-03-08T20:38:21.264Z,9.00
2024-03-08T20:40:51.449Z,9.00
2024-03-08T20:43:22.799Z,8.57
2024-03-08T20:45:51.513Z,8.27
2024-03-08T20:48:21.492Z,9.00
2024-03-08T20:50:51.922Z,8.37
2024-03-08T20:53:20.787Z,8.03
2024-03-08T20:55:51.667Z,7.63
2024-03-08T20:58:20.350Z,7.03
2024-03-08T21:00:55.070Z,7.70
2024-03-08T21:03:24.859Z,7.77
2024-03-08T21:05:54.709Z,7.90
2024-03-08T21:08:27.758Z,7.37
2024-03-08T21:10:58.905Z,7.67
2024-03-08T21:13:28.234Z,7.33
2024-03-08T21:15:57.381Z,7.27
2024-03-08T21:18:26.215Z,7.33
2024-03-08T21:20:54.564Z,8.23
2024-03-08T21:23:22.542Z,7.97
2024-03-08T21:25:50.624Z,7.67
2024-03-08T21:28:20.144Z,7.73
2024-03-08T21:30:48.235Z,6.67
2024-03-08T21:33:16.252Z,7.73
2024-03-08T21:35:44.224Z,7.67
2024-03-08T21:38:12.705Z,7.50
2024-03-08T21:40:57.060Z,7.33
2024-03-08T21:43:34.401Z,7.13
2024-03-08T21:46:03.065Z,7.10
2024-03-08T21:48:31.525Z,6.77
2024-03-08T21:50:59.498Z,6.93
2024-03-08T21:53:33.787Z,8.27
2024-03-08T21:56:03.815Z,8.50
2024-03-08T21:58:34.933Z,7.33
2024-03-08T22:01:03.273Z,6.97
2024-03-08T22:03:33.839Z,7.37
2024-03-08T22:06:05.288Z,7.73
2024-03-08T22:08:34.464Z,7.23
2024-03-08T22:11:02.640Z,7.43
2024-03-08T22:13:30.727Z,7.40
2024-03-08T22:16:00.019Z,7.07
2024-03-08T22:18:33.122Z,7.60
2024-03-08T22:21:01.166Z,7.57
2024-03-08T22:23:29.208Z,7.63
2024-03-08T22:25:57.830Z,7.43
2024-03-08T22:28:26.974Z,7.07
2024-03-08T22:30:55.360Z,7.17
2024-03-08T22:33:25.960Z,6.70
2024-03-08T22:35:54.856Z,6.87
2024-03-08T22:38:23.032Z,6.80
2024-03-08T22:40:51.207Z,7.40
2024-03-08T22:43:19.432Z,7.00
2024-03-08T22:45:49.804Z,7.40
2024-03-08T22:48:17.773Z,6.90
2024-03-08T22:50:47.084Z,7.50
2024-03-08T22:53:15.763Z,6.90
2024-03-08T22:55:43.835Z,7.20
2024-03-08T22:58:11.783Z,6.90
2024-03-08T23:00:55.695Z,7.47
2024-03-08T23:03:24.850Z,7.27
2024-03-08T23:05:55.799Z,7.20
2024-03-08T23:08:24.556Z,7.80
2024-03-08T23:10:52.830Z,7.23
2024-03-08T23:13:20.882Z,7.00
2024-03-08T23:15:48.801Z,8.20
2024-03-08T23:18:17.233Z,8.20
2024-03-08T23:20:45.184Z,9.30
2024-03-08T23:23:14.824Z,7.53
2024-03-08T23:25:45.901Z,8.07
2024-03-08T23:28:14.271Z,7.53
2024-03-08T23:30:44.413Z,8.10
2024-03-08T23:33:15.601Z,9.20
2024-03-08T23:35:45.484Z,8.60
2024-03-08T23:38:15.672Z,9.17
2024-03-08T23:40:43.851Z,8.63
2024-03-08T23:43:11.814Z,8.37
2024-03-08T23:45:40.107Z,7.93
2024-03-08T23:48:08.896Z,8.10
2024-03-08T23:50:38.098Z,8.30
2024-03-08T23:53:08.553Z,7.83
2024-03-08T23:55:39.762Z,7.83
2024-03-08T23:58:10.929Z,8.63
